Lawrence, Kansas
Current Conditions -  °F | °C
As of 4:52 AM on Friday 31 Oct 2014 (Local Time) from KLWC Reporting Station
Light Rain Light Rain  
Wind Chill:   Ceiling: 2600
Heat Index:   Visibility: 10mi
Dew Point:   Wind: 18mph
Humidity: 68%   Direction: 350°N
Pressure: 30.37"   Gusts: 35mph
Location:  38.97°N, 95.24°W
Report Text: KLWC 310952Z AUTO 35016G30KT 10SM -RA OVC026 06/01 A3037 RMK AO2 PK WND 35030/0854 SLP283 P0000 T00610006
Loading
Personal Weather Stations






























Interactive Weather Map
Tropical Storm Tracking
New forecast layout! Learn more

10-Day Weather Forecast

Advertisements
Track Severe Weather on mobile